Time,TemperatureF,DewpointF,PressureIn,WindDirection,WindDirectionDegrees,WindSpeedMPH,WindSpeedGustMPH,Humidity,HourlyPrecipIn,Conditions,Clouds,dailyrainin,SoftwareType,DateUTC
2013-06-11 00:01:00,79.9,76.0,30.04,ESE,119,4.6,4.6,88,0.00,CLR,,0.00,WeatherDisplay:10.37,2013-06-11 04:01:00,
2013-06-11 00:06:00,79.8,75.9,30.04,SE,128,5.8,5.8,88,0.00,CLR,,0.00,WeatherDisplay:10.37,2013-06-11 04:06:00,
2013-06-11 00:11:00,79.8,75.9,30.04,ESE,115,7.0,7.0,88,0.00,CLR,,0.00,WeatherDisplay:10.37,2013-06-11 04:11:00,
2013-06-11 00:16:00,79.8,75.9,30.04,SSE,150,6.9,6.9,88,0.00,CLR,,0.00,WeatherDisplay:10.37,2013-06-11 04:16:00,
2013-06-11 00:21:00,79.7,75.8,30.04,SSE,158,5.0,5.0,88,0.00,CLR,,0.00,WeatherDisplay:10.37,2013-06-11 04:21:00,
2013-06-11 00:26:00,79.7,75.8,30.04,SE,142,3.5,3.5,88,0.00,CLR,,0.00,WeatherDisplay:10.37,2013-06-11 04:26:00,
2013-06-11 00:31:00,79.7,75.8,30.04,SE,137,4.6,4.6,88,0.00,CLR,,0.00,WeatherDisplay:10.37,2013-06-11 04:31:00,
2013-06-11 00:36:00,79.6,75.7,30.04,SE,146,4.6,4.6,88,0.00,CLR,,0.00,WeatherDisplay:10.37,2013-06-11 04:36:00,
2013-06-11 00:41:00,79.7,75.8,30.04,SE,140,3.5,3.5,88,0.00,CLR,,0.00,WeatherDisplay:10.37,2013-06-11 04:41:00,
2013-06-11 00:46:00,79.7,75.8,30.04,South,180,4.0,4.0,88,0.00,CLR,,0.00,WeatherDisplay:10.37,2013-06-11 04:46:00,
2013-06-11 00:51:00,79.7,75.8,30.04,SE,132,3.5,3.5,88,0.00,CLR,,0.00,WeatherDisplay:10.37,2013-06-11 04:51:00,
2013-06-11 00:56:00,79.6,75.7,30.04,ESE,115,5.0,5.0,88,0.00,CLR,,0.00,WeatherDisplay:10.37,2013-06-11 04:56:00,
2013-06-11 01:01:00,79.6,75.7,30.04,SE,132,6.9,6.9,88,0.00,CLR,,0.00,WeatherDisplay:10.37,2013-06-11 05:01:00,
2013-06-11 01:06:00,79.6,75.7,30.03,SE,146,6.0,6.0,88,0.00,CLR,,0.00,WeatherDisplay:10.37,2013-06-11 05:06:00,
2013-06-11 01:11:00,79.6,76.1,30.03,SSE,147,6.9,6.9,89,0.00,CLR,,0.00,WeatherDisplay:10.37,2013-06-11 05:11:00,
2013-06-11 01:16:00,79.6,76.1,30.03,SE,132,6.9,6.9,89,0.00,CLR,,0.00,WeatherDisplay:10.37,2013-06-11 05:16:00,
2013-06-11 01:21:00,79.7,76.2,30.03,SE,128,7.0,7.0,89,0.00,CLR,,0.00,WeatherDisplay:10.37,2013-06-11 05:21:00,
2013-06-11 01:26:00,79.7,76.2,30.03,ESE,112,6.9,6.9,89,0.00,CLR,,0.00,WeatherDisplay:10.37,2013-06-11 05:26:00,
2013-06-11 01:31:00,79.8,76.3,30.03,SE,128,11.0,11.0,89,0.00,CLR,,0.00,WeatherDisplay:10.37,2013-06-11 05:31:00,
2013-06-11 01:36:00,79.8,76.3,30.02,SSE,153,5.8,5.8,89,0.00,CLR,,0.00,WeatherDisplay:10.37,2013-06-11 05:36:00,
2013-06-11 01:41:00,79.8,76.3,30.02,SE,146,11.5,11.5,89,0.00,CLR,,0.00,WeatherDisplay:10.37,2013-06-11 05:41:00,
2013-06-11 01:46:00,79.9,76.0,30.02,East,98,11.5,11.5,88,0.00,CLR,,0.00,WeatherDisplay:10.37,2013-06-11 05:46:00,
2013-06-11 01:51:00,79.9,76.0,30.02,SSE,147,11.5,11.5,88,0.00,CLR,,0.00,WeatherDisplay:10.37,2013-06-11 05:51:00,
2013-06-11 01:56:00,79.9,76.4,30.02,SE,143,8.1,8.1,89,0.00,CLR,,0.00,WeatherDisplay:10.37,2013-06-11 05:56:00,
2013-06-11 02:01:00,79.9,76.4,30.02,ESE,121,5.0,5.0,89,0.00,CLR,,0.00,WeatherDisplay:10.37,2013-06-11 06:01:00,
2013-06-11 02:06:00,79.9,76.4,30.02,SSE,159,6.9,6.9,89,0.00,CLR,,0.00,WeatherDisplay:10.37,2013-06-11 06:06:00,
2013-06-11 02:11:00,79.8,76.3,30.02,SSE,154,9.2,9.2,89,0.00,CLR,,0.00,WeatherDisplay:10.37,2013-06-11 06:11:00,
2013-06-11 02:16:00,79.8,76.3,30.01,SE,144,10.4,10.4,89,0.00,CLR,,0.00,WeatherDisplay:10.37,2013-06-11 06:16:00,
2013-06-11 02:21:00,79.9,76.4,30.01,SE,136,5.8,5.8,89,0.00,CLR,,0.00,WeatherDisplay:10.37,2013-06-11 06:21:00,
2013-06-11 02:26:00,79.9,76.4,30.01,SSE,163,6.9,6.9,89,0.00,CLR,,0.00,WeatherDisplay:10.37,2013-06-11 06:26:00,
2013-06-11 02:31:00,79.9,76.4,30.01,SSE,165,6.9,6.9,89,0.00,CLR,,0.00,WeatherDisplay:10.37,2013-06-11 06:31:00,
2013-06-11 02:36:00,79.9,76.4,30.00,SE,138,8.1,8.1,89,0.00,CLR,,0.00,WeatherDisplay:10.37,2013-06-11 06:36:00,
2013-06-11 02:41:00,79.9,76.4,30.00,ESE,118,6.9,6.9,89,0.00,CLR,,0.00,WeatherDisplay:10.37,2013-06-11 06:41:00,
2013-06-11 02:46:00,79.8,76.3,30.00,SE,139,5.0,5.0,89,0.00,CLR,,0.00,WeatherDisplay:10.37,2013-06-11 06:46:00,
2013-06-11 02:51:00,79.7,76.2,30.00,SSE,153,4.6,4.6,89,0.00,CLR,,0.00,WeatherDisplay:10.37,2013-06-11 06:51:00,
2013-06-11 02:56:00,79.6,76.1,30.00,ESE,115,3.5,3.5,89,0.00,CLR,,0.00,WeatherDisplay:10.37,2013-06-11 06:56:00,
2013-06-11 03:01:00,79.6,76.1,29.99,SE,139,3.5,3.5,89,0.00,CLR,,0.00,WeatherDisplay:10.37,2013-06-11 07:01:00,
2013-06-11 03:06:00,79.6,76.1,29.99,SE,146,4.0,4.0,89,0.00,CLR,,0.00,WeatherDisplay:10.37,2013-06-11 07:06:00,
2013-06-11 03:11:00,79.5,76.0,29.99,SSE,155,4.6,4.6,89,0.00,CLR,,0.00,WeatherDisplay:10.37,2013-06-11 07:11:00,
2013-06-11 03:16:00,79.5,76.0,29.99,SE,146,3.5,3.5,89,0.00,CLR,,0.00,WeatherDisplay:10.37,2013-06-11 07:16:00,
2013-06-11 03:21:00,79.4,75.9,29.99,SE,142,3.5,3.5,89,0.00,CLR,,0.00,WeatherDisplay:10.37,2013-06-11 07:21:00,
2013-06-11 03:26:00,79.3,76.1,29.99,ESE,123,3.5,3.5,90,0.00,CLR,,0.00,WeatherDisplay:10.37,2013-06-11 07:26:00,
2013-06-11 03:31:00,79.3,76.1,29.99,ESE,118,3.5,3.5,90,0.00,CLR,,0.00,WeatherDisplay:10.37,2013-06-11 07:31:00,
2013-06-11 03:36:00,79.2,76.0,29.99,SE,128,3.5,3.5,90,0.00,CLR,,0.00,WeatherDisplay:10.37,2013-06-11 07:36:00,
2013-06-11 03:41:00,79.2,76.0,29.99,SE,134,4.6,4.6,90,0.00,CLR,,0.00,WeatherDisplay:10.37,2013-06-11 07:41:00,
2013-06-11 03:46:00,79.2,76.0,29.99,SSE,163,3.5,3.5,90,0.00,CLR,,0.00,WeatherDisplay:10.37,2013-06-11 07:46:00,
2013-06-11 03:51:00,79.1,75.9,29.99,SSE,159,5.8,5.8,90,0.00,CLR,,0.00,WeatherDisplay:10.37,2013-06-11 07:51:00,
2013-06-11 03:56:00,79.1,75.9,29.99,SE,143,4.0,4.1,90,0.00,CLR,,0.00,WeatherDisplay:10.37,2013-06-11 07:56:00,
2013-06-11 04:01:00,79.0,75.8,29.99,SSE,150,3.5,3.5,90,0.00,CLR,,0.00,WeatherDisplay:10.37,2013-06-11 08:01:00,
2013-06-11 04:06:00,79.1,76.2,29.99,SE,134,5.8,5.8,91,0.00,CLR,,0.00,WeatherDisplay:10.37,2013-06-11 08:06:00,
2013-06-11 04:11:00,79.1,76.2,29.99,SE,130,4.6,4.6,91,0.00,CLR,,0.00,WeatherDisplay:10.37,2013-06-11 08:11:00,
2013-06-11 04:16:00,79.2,76.3,29.99,ESE,107,6.9,6.9,91,0.00,CLR,,0.00,WeatherDisplay:10.37,2013-06-11 08:16:00,
2013-06-11 04:21:00,79.3,76.4,29.99,SSE,151,4.6,4.6,91,0.00,CLR,,0.00,WeatherDisplay:10.37,2013-06-11 08:21:00,
2013-06-11 04:26:00,79.3,76.1,29.99,SSE,148,6.0,6.0,90,0.00,CLR,,0.00,WeatherDisplay:10.37,2013-06-11 08:26:00,
2013-06-11 04:31:00,79.4,76.2,29.99,ESE,120,9.2,9.2,90,0.00,CLR,,0.00,WeatherDisplay:10.37,2013-06-11 08:31:00,
2013-06-11 04:36:00,79.5,76.3,29.99,SSE,161,9.2,9.2,90,0.00,CLR,,0.00,WeatherDisplay:10.37,2013-06-11 08:36:00,
2013-06-11 04:41:00,79.6,76.4,30.00,SSE,163,10.4,10.4,90,0.00,CLR,,0.00,WeatherDisplay:10.37,2013-06-11 08:41:00,
2013-06-11 04:46:00,79.6,76.4,29.99,SSE,148,10.4,10.4,90,0.00,CLR,,0.00,WeatherDisplay:10.37,2013-06-11 08:46:00,
2013-06-11 04:51:00,79.5,76.3,30.00,ESE,117,10.4,10.4,90,0.00,CLR,,0.00,WeatherDisplay:10.37,2013-06-11 08:51:00,
2013-06-11 04:56:00,79.5,76.3,29.99,South,169,5.8,5.8,90,0.00,CLR,,0.00,WeatherDisplay:10.37,2013-06-11 08:56:00,
2013-06-11 05:01:00,79.4,76.2,29.99,SSE,148,4.6,4.6,90,0.00,CLR,,0.00,WeatherDisplay:10.37,2013-06-11 09:01:00,
2013-06-11 05:06:00,79.4,76.2,29.99,SSE,148,7.0,7.0,90,0.00,CLR,,0.00,WeatherDisplay:10.37,2013-06-11 09:06:00,
2013-06-11 05:11:00,79.4,76.2,29.99,SSE,153,4.6,4.6,90,0.00,CLR,,0.00,WeatherDisplay:10.37,2013-06-11 09:11:00,
2013-06-11 05:16:00,79.4,76.2,29.99,SSE,164,5.0,5.0,90,0.00,CLR,,0.00,WeatherDisplay:10.37,2013-06-11 09:16:00,
2013-06-11 05:21:00,79.3,75.8,29.99,SSE,148,6.9,6.9,89,0.00,CLR,,0.00,WeatherDisplay:10.37,2013-06-11 09:21:00,
2013-06-11 05:26:00,79.3,75.8,29.99,ESE,120,5.8,5.8,89,0.00,CLR,,0.00,WeatherDisplay:10.37,2013-06-11 09:26:00,
2013-06-11 05:31:00,79.2,75.7,29.99,SSE,159,3.5,3.5,89,0.00,CLR,,0.00,WeatherDisplay:10.37,2013-06-11 09:31:00,
2013-06-11 05:36:00,79.1,75.6,29.99,SE,139,3.5,3.5,89,0.00,CLR,,0.00,WeatherDisplay:10.37,2013-06-11 09:36:00,
2013-06-11 05:41:00,79.1,75.6,29.99,SSE,149,3.5,3.5,89,0.00,CLR,,0.00,WeatherDisplay:10.37,2013-06-11 09:41:00,
2013-06-11 05:46:00,79.1,75.6,30.00,SE,146,3.5,3.5,89,0.00,CLR,,0.00,WeatherDisplay:10.37,2013-06-11 09:46:00,
2013-06-11 05:51:00,79.1,75.6,30.00,SE,145,3.5,3.5,89,0.00,CLR,,0.00,WeatherDisplay:10.37,2013-06-11 09:51:00,
2013-06-11 05:56:00,79.0,75.5,30.00,SE,145,3.5,3.5,89,0.00,CLR,,0.00,WeatherDisplay:10.37,2013-06-11 09:56:00,
2013-06-11 06:01:00,78.9,75.4,30.00,SE,146,2.3,2.3,89,0.00,CLR,,0.00,WeatherDisplay:10.37,2013-06-11 10:01:00,
2013-06-11 06:06:00,78.9,75.4,30.00,SE,146,3.5,3.5,89,0.00,CLR,,0.00,WeatherDisplay:10.37,2013-06-11 10:06:00,
2013-06-11 06:11:00,78.8,75.3,30.01,SE,143,1.2,1.2,89,0.00,CLR,,0.00,WeatherDisplay:10.37,2013-06-11 10:11:00,
2013-06-11 06:16:00,78.8,75.3,30.01,SE,144,3.5,3.5,89,0.00,CLR,,0.00,WeatherDisplay:10.37,2013-06-11 10:16:00,
2013-06-11 06:21:00,78.7,75.2,30.01,SSE,159,3.5,3.5,89,0.00,CLR,,0.00,WeatherDisplay:10.37,2013-06-11 10:21:00,
2013-06-11 06:26:00,78.7,75.2,30.01,SSE,159,3.0,3.0,89,0.00,CLR,,0.00,WeatherDisplay:10.37,2013-06-11 10:26:00,
2013-06-11 06:31:00,78.6,75.4,30.01,SSE,159,3.5,3.5,90,0.00,CLR,,0.00,WeatherDisplay:10.37,2013-06-11 10:31:00,
2013-06-11 06:36:00,78.6,75.4,30.01,SSE,159,2.3,2.3,90,0.00,CLR,,0.00,WeatherDisplay:10.37,2013-06-11 10:36:00,
2013-06-11 06:41:00,78.6,75.4,30.01,SSE,159,0.0,0.0,90,0.00,CLR,,0.00,WeatherDisplay:10.37,2013-06-11 10:41:00,
2013-06-11 06:46:00,78.7,75.5,30.01,SSE,159,0.0,0.0,90,0.00,CLR,,0.00,WeatherDisplay:10.37,2013-06-11 10:46:00,
2013-06-11 06:51:00,78.8,75.3,30.01,SSE,159,0.0,0.0,89,0.00,CLR,,0.00,WeatherDisplay:10.37,2013-06-11 10:51:00,
2013-06-11 06:56:00,78.8,75.3,30.01,SSE,159,0.0,0.0,89,0.00,CLR,,0.00,WeatherDisplay:10.37,2013-06-11 10:56:00,
2013-06-11 07:01:00,78.9,75.7,30.01,SSE,159,0.0,0.0,90,0.00,CLR,,0.00,WeatherDisplay:10.37,2013-06-11 11:01:00,
2013-06-11 07:06:00,79.0,75.8,30.02,SSE,159,0.0,0.0,90,0.00,CLR,,0.00,WeatherDisplay:10.37,2013-06-11 11:06:00,
2013-06-11 07:11:00,79.2,76.3,30.02,SSE,159,0.0,0.0,91,0.00,CLR,,0.00,WeatherDisplay:10.37,2013-06-11 11:11:00,
2013-06-11 07:16:00,79.5,76.3,30.02,SSE,159,0.0,0.0,90,0.00,CLR,,0.00,WeatherDisplay:10.37,2013-06-11 11:16:00,
2013-06-11 07:21:00,80.1,76.6,30.02,SSE,159,0.0,0.0,89,0.00,CLR,,0.00,WeatherDisplay:10.37,2013-06-11 11:21:00,
2013-06-11 07:26:00,80.8,76.6,30.02,SSE,153,0.0,0.0,87,0.00,CLR,,0.00,WeatherDisplay:10.37,2013-06-11 11:26:00,
2013-06-11 07:31:00,81.5,76.9,30.02,SSE,153,0.0,0.0,86,0.00,CLR,,0.00,WeatherDisplay:10.37,2013-06-11 11:31:00,
2013-06-11 07:36:00,82.0,77.0,30.02,SE,132,2.0,2.0,85,0.00,CLR,,0.00,WeatherDisplay:10.37,2013-06-11 11:36:00,
2013-06-11 07:41:00,81.6,75.9,30.02,SE,136,4.0,4.0,83,0.00,CLR,,0.00,WeatherDisplay:10.37,2013-06-11 11:41:00,
2013-06-11 07:46:00,81.1,75.8,30.02,SSE,153,3.5,3.6,84,0.00,CLR,,0.00,WeatherDisplay:10.37,2013-06-11 11:46:00,
2013-06-11 07:51:00,80.9,76.3,30.02,SE,136,3.5,3.5,86,0.00,CLR,,0.00,WeatherDisplay:10.37,2013-06-11 11:51:00,
2013-06-11 07:56:00,81.1,76.5,30.02,SE,146,3.0,3.0,86,0.00,CLR,,0.00,WeatherDisplay:10.37,2013-06-11 11:56:00,
2013-06-11 08:01:00,81.5,76.6,30.03,SSE,157,3.5,3.5,85,0.00,CLR,,0.00,WeatherDisplay:10.37,2013-06-11 12:01:00,
2013-06-11 08:06:00,82.0,76.7,30.03,South,169,6.0,6.0,84,0.00,CLR,,0.00,WeatherDisplay:10.37,2013-06-11 12:06:00,
2013-06-11 08:11:00,82.3,76.6,30.03,SE,133,6.9,6.9,83,0.00,CLR,,0.00,WeatherDisplay:10.37,2013-06-11 12:11:00,
2013-06-11 08:16:00,82.5,76.8,30.03,SE,140,5.8,5.8,83,0.00,CLR,,0.00,WeatherDisplay:10.37,2013-06-11 12:16:00,
2013-06-11 08:21:00,82.6,76.9,30.03,East,100,5.8,5.8,83,0.00,CLR,,0.00,WeatherDisplay:10.37,2013-06-11 12:21:00,
2013-06-11 08:26:00,82.8,77.1,30.03,East,100,5.0,5.0,83,0.00,CLR,,0.00,WeatherDisplay:10.37,2013-06-11 12:26:00,
2013-06-11 08:31:00,82.8,77.1,30.04,SSE,148,10.4,10.4,83,0.00,CLR,,0.00,WeatherDisplay:10.37,2013-06-11 12:31:00,
2013-06-11 08:36:00,82.6,76.9,30.04,SSE,159,6.9,6.9,83,0.00,CLR,,0.00,WeatherDisplay:10.37,2013-06-11 12:36:00,
2013-06-11 08:41:00,82.9,76.8,30.04,SE,144,6.9,6.9,82,0.00,CLR,,0.00,WeatherDisplay:10.37,2013-06-11 12:41:00,
2013-06-11 08:46:00,83.3,76.9,30.04,SE,139,5.8,5.8,81,0.00,CLR,,0.00,WeatherDisplay:10.37,2013-06-11 12:46:00,
2013-06-11 08:51:00,83.1,76.3,30.04,SE,140,9.2,9.2,80,0.00,CLR,,0.00,WeatherDisplay:10.37,2013-06-11 12:51:00,
2013-06-11 08:56:00,82.8,76.7,30.04,East,96,5.8,5.8,82,0.00,CLR,,0.00,WeatherDisplay:10.37,2013-06-11 12:56:00,
2013-06-11 09:01:00,83.3,76.9,30.04,SE,144,6.9,6.9,81,0.00,CLR,,0.00,WeatherDisplay:10.37,2013-06-11 13:01:00,
2013-06-11 09:06:00,83.6,77.1,30.04,SE,138,10.0,10.0,81,0.00,CLR,,0.00,WeatherDisplay:10.37,2013-06-11 13:06:00,
2013-06-11 09:11:00,83.2,76.8,30.04,ESE,119,9.2,9.2,81,0.00,CLR,,0.00,WeatherDisplay:10.37,2013-06-11 13:11:00,
2013-06-11 09:16:00,82.8,76.7,30.04,SE,131,5.8,5.8,82,0.00,CLR,,0.00,WeatherDisplay:10.37,2013-06-11 13:16:00,
2013-06-11 09:21:00,82.5,76.4,30.04,SE,138,9.0,9.0,82,0.00,CLR,,0.00,WeatherDisplay:10.37,2013-06-11 13:21:00,
2013-06-11 09:26:00,82.4,76.7,30.04,SE,144,11.5,11.5,83,0.00,CLR,,0.00,WeatherDisplay:10.37,2013-06-11 13:26:00,
2013-06-11 09:31:00,82.1,76.1,30.04,South,175,11.5,11.5,82,0.00,CLR,,0.00,WeatherDisplay:10.37,2013-06-11 13:31:00,
2013-06-11 09:36:00,82.3,76.3,30.03,South,171,11.5,11.5,82,0.00,CLR,,0.00,WeatherDisplay:10.37,2013-06-11 13:36:00,
2013-06-11 09:41:00,83.1,76.3,30.04,SSE,155,11.5,11.5,80,0.00,CLR,,0.00,WeatherDisplay:10.37,2013-06-11 13:41:00,
2013-06-11 09:46:00,83.6,75.6,30.04,SSE,156,11.5,11.5,77,0.00,CLR,,0.00,WeatherDisplay:10.37,2013-06-11 13:46:00,
2013-06-11 09:51:00,83.9,76.7,30.04,SE,128,11.5,11.5,79,0.00,CLR,,0.00,WeatherDisplay:10.37,2013-06-11 13:51:00,
2013-06-11 09:56:00,84.4,76.8,30.04,SE,140,11.5,11.5,78,0.00,CLR,,0.00,WeatherDisplay:10.37,2013-06-11 13:56:00,
2013-06-11 10:01:00,84.7,76.7,30.04,SE,146,11.5,11.5,77,0.00,CLR,,0.00,WeatherDisplay:10.37,2013-06-11 14:01:00,
2013-06-11 10:06:00,85.0,76.6,30.03,South,172,11.5,11.5,76,0.00,CLR,,0.00,WeatherDisplay:10.37,2013-06-11 14:06:00,
2013-06-11 10:11:00,84.7,75.9,30.04,ESE,107,11.5,11.5,75,0.00,CLR,,0.00,WeatherDisplay:10.37,2013-06-11 14:11:00,
2013-06-11 10:16:00,85.2,76.0,30.03,SE,144,10.4,10.4,74,0.00,CLR,,0.00,WeatherDisplay:10.37,2013-06-11 14:16:00,
2013-06-11 10:21:00,85.7,76.0,30.03,SE,142,11.5,11.5,73,0.00,CLR,,0.00,WeatherDisplay:10.37,2013-06-11 14:21:00,
2013-06-11 10:26:00,85.8,77.0,30.04,South,175,10.4,10.4,75,0.00,CLR,,0.00,WeatherDisplay:10.37,2013-06-11 14:26:00,
2013-06-11 10:31:00,86.1,76.8,30.04,SE,144,11.5,11.5,74,0.00,CLR,,0.00,WeatherDisplay:10.37,2013-06-11 14:31:00,
2013-06-11 10:36:00,86.0,76.3,30.04,SE,143,14.0,14.0,73,0.00,CLR,,0.00,WeatherDisplay:10.37,2013-06-11 14:36:00,
2013-06-11 10:41:00,85.3,76.5,30.04,SSE,160,12.7,12.7,75,0.00,CLR,,0.00,WeatherDisplay:10.37,2013-06-11 14:41:00,
2013-06-11 10:46:00,85.3,76.9,30.04,SSE,160,10.4,10.4,76,0.00,CLR,,0.00,WeatherDisplay:10.37,2013-06-11 14:46:00,
2013-06-11 10:51:00,85.5,76.7,30.04,ESE,114,16.1,16.1,75,0.00,CLR,,0.00,WeatherDisplay:10.37,2013-06-11 14:51:00,
2013-06-11 10:56:00,85.2,76.4,30.04,SE,134,13.8,13.8,75,0.00,CLR,,0.00,WeatherDisplay:10.37,2013-06-11 14:56:00,
2013-06-11 11:01:00,85.5,76.7,30.04,South,174,11.5,11.5,75,0.00,CLR,,0.00,WeatherDisplay:10.37,2013-06-11 15:01:00,
2013-06-11 11:06:00,85.8,76.5,30.05,SSE,147,13.8,13.8,74,0.00,CLR,,0.00,WeatherDisplay:10.37,2013-06-11 15:06:00,
2013-06-11 11:11:00,85.7,76.5,30.05,SSE,148,11.5,11.5,74,0.00,CLR,,0.00,WeatherDisplay:10.37,2013-06-11 15:11:00,
2013-06-11 11:16:00,85.7,76.9,30.05,SSE,149,15.0,15.0,75,0.00,CLR,,0.00,WeatherDisplay:10.37,2013-06-11 15:16:00,
2013-06-11 11:21:00,85.9,77.1,30.05,SE,137,11.5,11.5,75,0.00,CLR,,0.00,WeatherDisplay:10.37,2013-06-11 15:21:00,
2013-06-11 11:26:00,85.6,76.4,30.05,South,191,16.1,16.1,74,0.00,CLR,,0.00,WeatherDisplay:10.37,2013-06-11 15:26:00,
2013-06-11 11:31:00,86.0,76.7,30.05,SSW,209,13.8,13.8,74,0.00,CLR,,0.00,WeatherDisplay:10.37,2013-06-11 15:31:00,
2013-06-11 11:36:00,86.7,75.7,30.06,South,183,15.0,15.0,70,0.00,CLR,,0.00,WeatherDisplay:10.37,2013-06-11 15:36:00,
2013-06-11 11:41:00,85.3,74.8,30.06,SSW,192,19.0,19.0,71,0.00,CLR,,0.00,WeatherDisplay:10.37,2013-06-11 15:41:00,
2013-06-11 11:46:00,82.5,73.4,30.06,SW,225,13.8,13.8,74,0.00,CLR,,0.00,WeatherDisplay:10.37,2013-06-11 15:46:00,
2013-06-11 11:51:00,81.7,73.0,30.06,SW,223,12.7,12.7,75,0.00,CLR,,0.00,WeatherDisplay:10.37,2013-06-11 15:51:00,
2013-06-11 11:56:00,80.9,73.4,30.06,SW,231,11.5,11.5,78,0.00,CLR,,0.00,WeatherDisplay:10.37,2013-06-11 15:56:00,
2013-06-11 12:01:00,81.0,74.6,30.05,WSW,257,10.4,10.4,81,0.00,CLR,,0.00,WeatherDisplay:10.37,2013-06-11 16:01:00,
2013-06-11 12:06:00,81.8,75.4,30.05,SW,219,5.8,5.8,81,0.00,CLR,,0.00,WeatherDisplay:10.37,2013-06-11 16:06:00,
2013-06-11 12:11:00,81.8,75.0,30.05,SW,227,6.9,6.9,80,0.00,CLR,,0.00,WeatherDisplay:10.37,2013-06-11 16:11:00,
2013-06-11 12:16:00,81.4,75.0,30.04,South,184,6.9,6.9,81,0.00,CLR,,0.00,WeatherDisplay:10.37,2013-06-11 16:16:00,
2013-06-11 12:21:00,81.2,74.8,30.04,South,184,4.6,4.6,81,0.00,CLR,,0.00,WeatherDisplay:10.37,2013-06-11 16:21:00,
2013-06-11 12:26:00,81.1,75.1,30.04,SW,216,6.0,6.0,82,0.00,CLR,,0.00,WeatherDisplay:10.37,2013-06-11 16:26:00,
2013-06-11 12:31:00,80.8,75.2,30.04,SSW,202,9.2,9.2,83,0.00,CLR,,0.00,WeatherDisplay:10.37,2013-06-11 16:31:00,
2013-06-11 12:36:00,80.7,75.4,30.04,WSW,244,7.0,7.0,84,0.00,CLR,,0.00,WeatherDisplay:10.37,2013-06-11 16:36:00,
2013-06-11 12:41:00,80.7,75.8,30.04,South,181,3.5,3.5,85,0.00,CLR,,0.00,WeatherDisplay:10.37,2013-06-11 16:41:00,
2013-06-11 12:46:00,81.1,75.8,30.04,SW,229,8.1,8.1,84,0.00,CLR,,0.00,WeatherDisplay:10.37,2013-06-11 16:46:00,
2013-06-11 12:51:00,81.4,76.1,30.03,SSW,211,5.8,5.8,84,0.00,CLR,,0.00,WeatherDisplay:10.37,2013-06-11 16:51:00,
2013-06-11 12:56:00,82.0,76.0,30.03,South,182,5.8,5.8,82,0.00,CLR,,0.00,WeatherDisplay:10.37,2013-06-11 16:56:00,
2013-06-11 13:01:00,82.5,76.4,30.03,WSW,258,5.8,5.8,82,0.00,CLR,,0.00,WeatherDisplay:10.37,2013-06-11 17:01:00,
2013-06-11 13:06:00,82.9,76.1,30.03,SW,227,11.5,11.5,80,0.00,CLR,,0.00,WeatherDisplay:10.37,2013-06-11 17:06:00,
2013-06-11 13:11:00,83.3,76.1,30.02,SSW,207,4.6,4.6,79,0.00,CLR,,0.00,WeatherDisplay:10.37,2013-06-11 17:11:00,
2013-06-11 13:16:00,83.9,76.3,30.02,South,181,5.8,5.8,78,0.00,CLR,,0.00,WeatherDisplay:10.37,2013-06-11 17:16:00,
2013-06-11 13:21:00,84.4,76.0,30.03,SSW,209,3.5,3.5,76,0.00,CLR,,0.00,WeatherDisplay:10.37,2013-06-11 17:21:00,
2013-06-11 13:26:00,85.0,76.2,30.03,SSW,205,3.5,3.5,75,0.00,CLR,,0.00,WeatherDisplay:10.37,2013-06-11 17:26:00,
2013-06-11 13:31:00,85.4,76.2,30.03,ENE,67,3.5,3.5,74,0.00,CLR,,0.00,WeatherDisplay:10.37,2013-06-11 17:31:00,
2013-06-11 13:36:00,85.6,76.4,30.03,ESE,107,3.0,3.0,74,0.00,CLR,,0.00,WeatherDisplay:10.37,2013-06-11 17:36:00,
2013-06-11 13:41:00,85.6,75.9,30.02,ESE,114,3.5,3.5,73,0.00,CLR,,0.00,WeatherDisplay:10.37,2013-06-11 17:41:00,
2013-06-11 13:46:00,85.7,76.0,30.02,SSE,155,8.1,8.1,73,0.00,CLR,,0.00,WeatherDisplay:10.37,2013-06-11 17:46:00,
2013-06-11 13:51:00,85.9,75.8,30.02,SSE,149,5.8,5.8,72,0.00,CLR,,0.00,WeatherDisplay:10.37,2013-06-11 17:51:00,
2013-06-11 13:56:00,86.3,75.8,30.01,South,184,6.9,6.9,71,0.00,CLR,,0.00,WeatherDisplay:10.37,2013-06-11 17:56:00,
2013-06-11 14:01:00,86.6,75.2,30.01,SSE,162,9.2,9.2,69,0.00,CLR,,0.00,WeatherDisplay:10.37,2013-06-11 18:01:00,
2013-06-11 14:06:00,86.5,75.1,30.01,SSW,196,4.0,4.0,69,0.00,CLR,,0.00,WeatherDisplay:10.37,2013-06-11 18:06:00,
2013-06-11 14:11:00,86.3,74.9,30.02,SSW,192,9.2,9.2,69,0.00,CLR,,0.00,WeatherDisplay:10.37,2013-06-11 18:11:00,
2013-06-11 14:16:00,86.3,74.5,30.02,SSE,154,3.5,3.5,68,0.00,CLR,,0.00,WeatherDisplay:10.37,2013-06-11 18:16:00,
2013-06-11 14:21:00,86.2,75.3,30.02,SSW,205,3.5,3.5,70,0.00,CLR,,0.00,WeatherDisplay:10.37,2013-06-11 18:21:00,
2013-06-11 14:26:00,85.9,75.0,30.01,ESE,103,5.8,5.8,70,0.00,CLR,,0.00,WeatherDisplay:10.37,2013-06-11 18:26:00,
2013-06-11 14:31:00,85.1,74.6,30.01,SE,129,9.2,9.2,71,0.00,CLR,,0.00,WeatherDisplay:10.37,2013-06-11 18:31:00,
2013-06-11 14:36:00,84.7,74.7,30.01,SSE,159,8.1,8.1,72,0.00,CLR,,0.00,WeatherDisplay:10.37,2013-06-11 18:36:00,
2013-06-11 14:41:00,84.3,75.1,30.01,SSE,165,10.4,10.4,74,0.00,CLR,,0.00,WeatherDisplay:10.37,2013-06-11 18:41:00,
2013-06-11 14:46:00,84.3,75.1,30.01,SE,146,9.2,9.2,74,0.00,CLR,,0.00,WeatherDisplay:10.37,2013-06-11 18:46:00,
2013-06-11 14:51:00,84.5,74.5,30.01,SE,138,11.5,11.5,72,0.00,CLR,,0.00,WeatherDisplay:10.37,2013-06-11 18:51:00,
2013-06-11 14:56:00,84.5,74.5,30.01,SSE,159,13.0,13.0,72,0.00,CLR,,0.00,WeatherDisplay:10.37,2013-06-11 18:56:00,
2013-06-11 15:01:00,84.5,74.9,30.01,SSE,150,11.5,11.5,73,0.00,CLR,,0.00,WeatherDisplay:10.37,2013-06-11 19:01:00,
2013-06-11 15:06:00,84.6,74.2,30.01,SSE,159,11.5,11.5,71,0.00,CLR,,0.00,WeatherDisplay:10.37,2013-06-11 19:06:00,
2013-06-11 15:11:00,84.8,75.2,30.01,SSE,153,8.1,8.1,73,0.00,CLR,,0.00,WeatherDisplay:10.37,2013-06-11 19:11:00,
2013-06-11 15:16:00,85.1,75.1,30.02,SE,136,10.4,10.4,72,0.00,CLR,,0.00,WeatherDisplay:10.37,2013-06-11 19:16:00,
2013-06-11 15:21:00,85.2,75.6,30.01,SE,144,10.4,10.4,73,0.00,CLR,,0.00,WeatherDisplay:10.37,2013-06-11 19:21:00,
2013-06-11 15:26:00,84.9,75.3,30.01,ESE,116,11.5,11.5,73,0.00,CLR,,0.00,WeatherDisplay:10.37,2013-06-11 19:26:00,
2013-06-11 15:31:00,84.8,75.2,30.01,South,185,6.9,6.9,73,0.00,CLR,,0.00,WeatherDisplay:10.37,2013-06-11 19:31:00,
2013-06-11 15:36:00,85.0,75.0,30.01,SE,144,11.5,11.5,72,0.00,CLR,,0.00,WeatherDisplay:10.37,2013-06-11 19:36:00,
2013-06-11 15:41:00,84.9,74.4,30.01,SSE,162,10.4,10.4,71,0.00,CLR,,0.00,WeatherDisplay:10.37,2013-06-11 19:41:00,
2013-06-11 15:46:00,85.1,74.6,30.00,SSE,155,8.1,8.1,71,0.00,CLR,,0.00,WeatherDisplay:10.37,2013-06-11 19:46:00,
2013-06-11 15:51:00,85.1,74.2,30.00,SE,146,9.2,9.2,70,0.00,CLR,,0.00,WeatherDisplay:10.37,2013-06-11 19:51:00,
2013-06-11 15:56:00,85.1,74.6,30.00,SSE,159,10.4,10.4,71,0.00,CLR,,0.00,WeatherDisplay:10.37,2013-06-11 19:56:00,
2013-06-11 16:01:00,85.0,75.0,30.00,SE,139,10.4,10.4,72,0.00,CLR,,0.00,WeatherDisplay:10.37,2013-06-11 20:01:00,
2013-06-11 16:06:00,85.0,74.5,30.00,SE,132,7.0,7.0,71,0.00,CLR,,0.00,WeatherDisplay:10.37,2013-06-11 20:06:00,
2013-06-11 16:11:00,85.0,74.1,29.99,SE,128,8.1,8.1,70,0.00,CLR,,0.00,WeatherDisplay:10.37,2013-06-11 20:11:00,
2013-06-11 16:16:00,85.0,75.0,29.99,ESE,120,4.6,4.6,72,0.00,CLR,,0.00,WeatherDisplay:10.37,2013-06-11 20:16:00,
2013-06-11 16:21:00,85.2,75.1,29.99,SE,132,6.0,6.0,72,0.00,CLR,,0.00,WeatherDisplay:10.37,2013-06-11 20:21:00,
2013-06-11 16:26:00,85.6,75.1,29.99,ESE,115,6.9,6.9,71,0.00,CLR,,0.00,WeatherDisplay:10.37,2013-06-11 20:26:00,
2013-06-11 16:31:00,85.8,74.9,29.99,ESE,120,9.2,9.2,70,0.00,CLR,,0.00,WeatherDisplay:10.37,2013-06-11 20:31:00,
2013-06-11 16:36:00,85.8,74.9,29.99,East,94,6.9,6.9,70,0.00,CLR,,0.00,WeatherDisplay:10.37,2013-06-11 20:36:00,
2013-06-11 16:41:00,85.6,75.1,29.99,East,89,6.9,6.9,71,0.00,CLR,,0.00,WeatherDisplay:10.37,2013-06-11 20:41:00,
2013-06-11 16:46:00,85.6,74.7,29.99,SE,134,5.8,5.8,70,0.00,CLR,,0.00,WeatherDisplay:10.37,2013-06-11 20:46:00,
2013-06-11 16:51:00,85.3,74.8,29.99,ESE,113,10.0,10.0,71,0.00,CLR,,0.00,WeatherDisplay:10.37,2013-06-11 20:51:00,
2013-06-11 16:56:00,84.8,74.8,29.99,SE,130,10.4,10.4,72,0.00,CLR,,0.00,WeatherDisplay:10.37,2013-06-11 20:56:00,
2013-06-11 17:01:00,84.6,75.0,29.99,SE,140,9.2,9.2,73,0.00,CLR,,0.00,WeatherDisplay:10.37,2013-06-11 21:01:00,
2013-06-11 17:06:00,84.5,74.9,29.98,SE,137,6.9,6.9,73,0.00,CLR,,0.00,WeatherDisplay:10.37,2013-06-11 21:06:00,
2013-06-11 17:11:00,84.4,75.2,29.98,East,101,5.8,5.8,74,0.00,CLR,,0.00,WeatherDisplay:10.37,2013-06-11 21:11:00,
2013-06-11 17:16:00,84.2,75.0,29.98,SSE,156,10.4,10.4,74,0.00,CLR,,0.00,WeatherDisplay:10.37,2013-06-11 21:16:00,
2013-06-11 17:21:00,84.3,74.7,29.98,SSE,155,10.4,10.4,73,0.00,CLR,,0.00,WeatherDisplay:10.37,2013-06-11 21:21:00,
2013-06-11 17:26:00,84.4,75.2,29.98,SE,142,5.8,5.8,74,0.00,CLR,,0.00,WeatherDisplay:10.37,2013-06-11 21:26:00,
2013-06-11 17:31:00,84.2,74.6,29.98,ESE,111,7.0,7.0,73,0.00,CLR,,0.00,WeatherDisplay:10.37,2013-06-11 21:31:00,
2013-06-11 17:36:00,83.9,74.7,29.98,ESE,103,5.0,5.0,74,0.00,CLR,,0.00,WeatherDisplay:10.37,2013-06-11 21:36:00,
2013-06-11 17:41:00,83.7,75.3,29.98,SE,128,5.8,5.8,76,0.00,CLR,,0.00,WeatherDisplay:10.37,2013-06-11 21:41:00,
2013-06-11 17:46:00,83.5,75.5,29.98,SE,144,6.0,6.0,77,0.00,CLR,,0.00,WeatherDisplay:10.37,2013-06-11 21:46:00,
2013-06-11 17:51:00,83.3,75.3,29.99,SE,130,5.8,5.8,77,0.00,CLR,,0.00,WeatherDisplay:10.37,2013-06-11 21:51:00,
2013-06-11 17:56:00,83.1,75.5,30.00,SE,130,6.9,6.9,78,0.00,CLR,,0.00,WeatherDisplay:10.37,2013-06-11 21:56:00,
2013-06-11 18:01:00,82.9,75.7,30.00,ESE,123,4.6,4.6,79,0.00,CLR,,0.00,WeatherDisplay:10.37,2013-06-11 22:01:00,
2013-06-11 18:06:00,82.7,75.9,30.00,ESE,113,7.0,7.0,80,0.00,CLR,,0.00,WeatherDisplay:10.37,2013-06-11 22:06:00,
2013-06-11 18:11:00,82.5,75.7,30.00,SE,131,9.2,9.2,80,0.00,CLR,,0.00,WeatherDisplay:10.37,2013-06-11 22:11:00,
2013-06-11 18:16:00,82.5,75.7,30.00,SE,130,3.5,3.5,80,0.00,CLR,,0.00,WeatherDisplay:10.37,2013-06-11 22:16:00,
2013-06-11 18:21:00,82.4,75.6,30.01,SE,127,4.6,4.6,80,0.00,CLR,,0.00,WeatherDisplay:10.37,2013-06-11 22:21:00,
2013-06-11 18:26:00,82.4,75.2,30.01,SE,136,6.9,6.9,79,0.00,CLR,,0.00,WeatherDisplay:10.37,2013-06-11 22:26:00,
2013-06-11 18:31:00,82.3,75.1,30.01,SE,140,3.5,3.5,79,0.00,CLR,,0.00,WeatherDisplay:10.37,2013-06-11 22:31:00,
2013-06-11 18:36:00,82.3,75.5,30.01,SE,126,4.0,4.0,80,0.00,CLR,,0.00,WeatherDisplay:10.37,2013-06-11 22:36:00,
2013-06-11 18:41:00,82.3,75.9,30.01,ESE,117,5.0,5.0,81,0.00,CLR,,0.00,WeatherDisplay:10.37,2013-06-11 22:41:00,
2013-06-11 18:46:00,82.2,75.8,30.01,East,97,6.9,6.9,81,0.00,CLR,,0.00,WeatherDisplay:10.37,2013-06-11 22:46:00,
2013-06-11 18:51:00,82.1,76.1,30.01,SE,124,3.5,3.5,82,0.00,CLR,,0.00,WeatherDisplay:10.37,2013-06-11 22:51:00,
2013-06-11 18:56:00,82.0,76.0,30.01,SE,130,3.5,3.5,82,0.00,CLR,,0.00,WeatherDisplay:10.37,2013-06-11 22:56:00,
2013-06-11 19:01:00,81.9,75.9,30.01,East,101,4.0,4.0,82,0.00,CLR,,0.00,WeatherDisplay:10.37,2013-06-11 23:01:00,
2013-06-11 19:06:00,81.8,76.1,30.01,East,81,4.6,4.6,83,0.00,CLR,,0.00,WeatherDisplay:10.37,2013-06-11 23:06:00,
2013-06-11 19:11:00,81.6,75.9,30.01,ESE,112,4.6,4.6,83,0.00,CLR,,0.00,WeatherDisplay:10.37,2013-06-11 23:11:00,
2013-06-11 19:16:00,81.5,76.2,30.02,SE,132,4.6,4.6,84,0.00,CLR,,0.00,WeatherDisplay:10.37,2013-06-11 23:16:00,
2013-06-11 19:21:00,81.4,76.1,30.01,SE,140,3.5,3.5,84,0.00,CLR,,0.00,WeatherDisplay:10.37,2013-06-11 23:21:00,
2013-06-11 19:26:00,81.2,75.9,30.01,SSE,150,5.0,5.0,84,0.00,CLR,,0.00,WeatherDisplay:10.37,2013-06-11 23:26:00,
2013-06-11 19:31:00,81.1,75.8,30.01,SE,136,4.6,4.6,84,0.00,CLR,,0.00,WeatherDisplay:10.37,2013-06-11 23:31:00,
2013-06-11 19:36:00,80.9,76.0,30.01,SE,142,6.0,6.0,85,0.00,CLR,,0.00,WeatherDisplay:10.37,2013-06-11 23:36:00,
2013-06-11 19:41:00,80.8,75.9,30.01,SE,133,4.6,4.6,85,0.00,CLR,,0.00,WeatherDisplay:10.37,2013-06-11 23:41:00,
2013-06-11 19:46:00,80.7,76.1,30.00,ESE,113,6.9,6.9,86,0.00,CLR,,0.00,WeatherDisplay:10.37,2013-06-11 23:46:00,
2013-06-11 19:51:00,80.6,76.0,30.00,ESE,114,8.1,8.1,86,0.00,CLR,,0.00,WeatherDisplay:10.37,2013-06-11 23:51:00,
2013-06-11 19:56:00,80.6,76.0,30.00,SE,144,4.6,4.7,86,0.00,CLR,,0.00,WeatherDisplay:10.37,2013-06-11 23:56:00,
2013-06-11 20:01:00,80.5,75.9,30.00,ESE,117,5.8,5.8,86,0.00,CLR,,0.00,WeatherDisplay:10.37,2013-06-12 00:01:00,
2013-06-11 20:06:00,80.5,75.9,30.00,ESE,122,5.8,5.8,86,0.00,CLR,,0.00,WeatherDisplay:10.37,2013-06-12 00:06:00,
2013-06-11 20:11:00,80.5,75.9,30.01,ESE,109,5.8,5.8,86,0.00,CLR,,0.00,WeatherDisplay:10.37,2013-06-12 00:11:00,
2013-06-11 20:16:00,80.5,75.9,30.00,SE,140,4.0,4.0,86,0.00,CLR,,0.00,WeatherDisplay:10.37,2013-06-12 00:16:00,
2013-06-11 20:21:00,80.5,75.9,30.00,SE,134,3.5,4.0,86,0.00,CLR,,0.00,WeatherDisplay:10.37,2013-06-12 00:21:00,
2013-06-11 20:26:00,80.5,75.9,30.00,ESE,122,3.5,3.5,86,0.00,CLR,,0.00,WeatherDisplay:10.37,2013-06-12 00:26:00,
2013-06-11 20:31:00,80.5,75.9,30.00,SSE,149,5.0,5.0,86,0.00,CLR,,0.00,WeatherDisplay:10.37,2013-06-12 00:31:00,
2013-06-11 20:36:00,80.4,76.2,30.00,SE,134,5.8,5.8,87,0.00,CLR,,0.00,WeatherDisplay:10.37,2013-06-12 00:36:00,
2013-06-11 20:41:00,80.4,76.2,30.01,SE,138,3.5,3.8,87,0.00,CLR,,0.00,WeatherDisplay:10.37,2013-06-12 00:41:00,
2013-06-11 20:46:00,80.3,76.1,30.01,SSE,155,4.6,4.6,87,0.00,CLR,,0.00,WeatherDisplay:10.37,2013-06-12 00:46:00,
2013-06-11 20:51:00,80.3,76.1,30.00,SE,126,6.9,6.9,87,0.00,CLR,,0.00,WeatherDisplay:10.37,2013-06-12 00:51:00,
2013-06-11 20:56:00,80.3,76.1,30.00,ESE,121,5.8,5.8,87,0.00,CLR,,0.00,WeatherDisplay:10.37,2013-06-12 00:56:00,
2013-06-11 21:01:00,80.3,76.4,30.00,SE,134,4.6,4.6,88,0.00,CLR,,0.00,WeatherDisplay:10.37,2013-06-12 01:01:00,
2013-06-11 21:06:00,80.3,76.4,30.00,ESE,121,5.8,5.8,88,0.00,CLR,,0.00,WeatherDisplay:10.37,2013-06-12 01:06:00,
2013-06-11 21:11:00,80.3,76.4,30.00,SE,131,4.6,4.6,88,0.00,CLR,,0.00,WeatherDisplay:10.37,2013-06-12 01:11:00,
2013-06-11 21:16:00,80.2,76.3,30.00,SE,133,4.6,4.6,88,0.00,CLR,,0.00,WeatherDisplay:10.37,2013-06-12 01:16:00,
2013-06-11 21:21:00,80.2,76.3,29.99,SE,131,5.8,5.8,88,0.00,CLR,,0.00,WeatherDisplay:10.37,2013-06-12 01:21:00,
2013-06-11 21:26:00,80.1,76.6,29.99,SE,146,4.6,4.6,89,0.00,CLR,,0.00,WeatherDisplay:10.37,2013-06-12 01:26:00,
2013-06-11 21:31:00,80.1,76.6,29.99,SE,124,11.5,11.5,89,0.00,CLR,,0.00,WeatherDisplay:10.37,2013-06-12 01:31:00,
2013-06-11 21:36:00,80.2,76.7,29.99,SE,144,10.4,10.4,89,0.00,CLR,,0.00,WeatherDisplay:10.37,2013-06-12 01:36:00,
2013-06-11 21:41:00,80.1,76.6,29.99,SE,134,6.9,6.9,89,0.00,CLR,,0.00,WeatherDisplay:10.37,2013-06-12 01:41:00,
2013-06-11 21:46:00,80.1,76.6,29.99,SE,136,8.1,8.1,89,0.00,CLR,,0.00,WeatherDisplay:10.37,2013-06-12 01:46:00,
2013-06-11 21:51:00,80.0,76.1,29.99,South,176,6.9,6.9,88,0.00,CLR,,0.00,WeatherDisplay:10.37,2013-06-12 01:51:00,
2013-06-11 21:56:00,79.9,76.0,29.99,SSE,151,8.1,8.1,88,0.00,CLR,,0.00,WeatherDisplay:10.37,2013-06-12 01:56:00,
2013-06-11 22:01:00,79.8,75.2,29.99,SSE,153,9.2,9.2,86,0.00,CLR,,0.00,WeatherDisplay:10.37,2013-06-12 02:01:00,
2013-06-11 22:06:00,79.8,74.9,29.99,SE,138,4.6,4.6,85,0.00,CLR,,0.00,WeatherDisplay:10.37,2013-06-12 02:06:00,
2013-06-11 22:11:00,79.8,74.9,29.99,SE,133,5.0,5.0,85,0.00,CLR,,0.00,WeatherDisplay:10.37,2013-06-12 02:11:00,
2013-06-11 22:16:00,79.8,74.9,29.99,SE,143,6.9,6.9,85,0.00,CLR,,0.00,WeatherDisplay:10.37,2013-06-12 02:16:00,
2013-06-11 22:21:00,79.7,75.5,29.99,SE,140,7.0,7.0,87,0.00,CLR,,0.00,WeatherDisplay:10.37,2013-06-12 02:21:00,
2013-06-11 22:26:00,79.7,75.8,29.99,SE,128,5.8,5.8,88,0.00,CLR,,0.00,WeatherDisplay:10.37,2013-06-12 02:26:00,
2013-06-11 22:31:00,79.8,76.3,29.99,SE,127,10.4,10.4,89,0.00,CLR,,0.00,WeatherDisplay:10.37,2013-06-12 02:31:00,
2013-06-11 22:36:00,79.8,76.3,29.99,SSE,158,5.0,5.0,89,0.00,CLR,,0.00,WeatherDisplay:10.37,2013-06-12 02:36:00,
2013-06-11 22:41:00,79.8,76.3,29.99,SE,140,4.6,4.6,89,0.00,CLR,,0.00,WeatherDisplay:10.37,2013-06-12 02:41:00,
2013-06-11 22:46:00,79.8,76.3,30.00,SSE,153,3.5,3.5,89,0.00,CLR,,0.00,WeatherDisplay:10.37,2013-06-12 02:46:00,
2013-06-11 22:51:00,79.7,76.2,30.00,South,175,4.6,4.6,89,0.00,CLR,,0.00,WeatherDisplay:10.37,2013-06-12 02:51:00,
2013-06-11 22:56:00,79.7,76.5,30.00,SSE,148,4.6,4.6,90,0.00,CLR,,0.00,WeatherDisplay:10.37,2013-06-12 02:56:00,
2013-06-11 23:01:00,79.6,76.1,30.00,SE,144,3.5,3.5,89,0.00,CLR,,0.00,WeatherDisplay:10.37,2013-06-12 03:01:00,
2013-06-11 23:06:00,79.7,76.2,30.01,SSE,150,3.5,3.5,89,0.00,CLR,,0.00,WeatherDisplay:10.37,2013-06-12 03:06:00,
2013-06-11 23:11:00,79.7,76.2,30.01,SSE,163,4.6,4.6,89,0.00,CLR,,0.00,WeatherDisplay:10.37,2013-06-12 03:11:00,
2013-06-11 23:16:00,79.8,76.3,30.01,SE,143,5.0,5.0,89,0.00,CLR,,0.00,WeatherDisplay:10.37,2013-06-12 03:16:00,
2013-06-11 23:21:00,79.8,76.3,30.01,SE,140,7.0,7.0,89,0.00,CLR,,0.00,WeatherDisplay:10.37,2013-06-12 03:21:00,
2013-06-11 23:26:00,79.9,76.4,30.01,SE,136,3.5,3.5,89,0.00,CLR,,0.00,WeatherDisplay:10.37,2013-06-12 03:26:00,
2013-06-11 23:31:00,79.9,76.4,30.01,South,173,3.5,3.5,89,0.00,CLR,,0.00,WeatherDisplay:10.37,2013-06-12 03:31:00,
2013-06-11 23:36:00,79.9,76.0,30.01,SE,145,3.5,3.5,88,0.00,CLR,,0.00,WeatherDisplay:10.37,2013-06-12 03:36:00,
2013-06-11 23:41:00,80.0,76.1,30.01,SE,141,5.8,5.8,88,0.00,CLR,,0.00,WeatherDisplay:10.37,2013-06-12 03:41:00,
2013-06-11 23:46:00,80.0,76.1,30.02,SSE,164,4.6,4.6,88,0.00,CLR,,0.00,WeatherDisplay:10.37,2013-06-12 03:46:00,
2013-06-11 23:51:00,80.0,76.1,30.02,SSE,158,4.6,4.6,88,0.00,CLR,,0.00,WeatherDisplay:10.37,2013-06-12 03:51:00,
2013-06-11 23:56:00,79.9,76.0,30.02,SE,146,3.5,3.5,88,0.00,CLR,,0.00,WeatherDisplay:10.37,2013-06-12 03:56:00,